Time;durP1;ratioP1;P1;durP2;ratioP2;P2;SDS_P1;SDS_P2;PMS_P1;PMS_P2;Temp;Humidity;BMP_temperature;BMP_pressure;BME280_temperature;BME280_humidity;BME280_pressure;Samples;Min_cycle;Max_cycle;Signal;HPM_P1;HPM_P2
2021/07/15 00:00:25;;;;;;;5.20;1.50;;;;;;;;;;3583914;40;20572;-63
2021/07/15 00:02:51;;;;;;;3.50;1.77;;;;;;;;;;3583539;40;20304;-63
2021/07/15 00:05:17;;;;;;;3.70;1.40;;;;;;;;;;3582491;40;20053;-62
2021/07/15 00:07:43;;;;;;;6.88;1.42;;;;;;;;;;3583550;40;20055;-62
2021/07/15 00:10:20;;;;;;;4.53;1.63;;;;;;;;;;3583679;40;20032;-63
2021/07/15 00:12:48;;;;;;;3.20;1.45;;;;;;;;;;3583357;40;20047;-62
2021/07/15 00:15:15;;;;;;;6.97;1.50;;;;;;;;;;3573747;40;20033;-62
2021/07/15 00:17:40;;;;;;;1.88;1.27;;;;;;;;;;3582441;40;20052;-62
2021/07/15 00:20:11;;;;;;;2.80;1.63;;;;;;;;;;3582614;40;20044;-63
2021/07/15 00:22:36;;;;;;;2.42;1.38;;;;;;;;;;3581187;40;20056;-62
2021/07/15 00:25:11;;;;;;;4.82;1.45;;;;;;;;;;3583886;40;20029;-62
2021/07/15 00:27:39;;;;;;;2.15;1.35;;;;;;;;;;3582637;40;20040;-63
2021/07/15 00:30:06;;;;;;;2.30;1.20;;;;;;;;;;3584150;40;20126;-63
2021/07/15 00:32:32;;;;;;;3.35;1.58;;;;;;;;;;3584229;40;20052;-63
2021/07/15 00:34:58;;;;;;;2.97;1.40;;;;;;;;;;3581202;40;20114;-63
2021/07/15 00:37:23;;;;;;;2.35;1.25;;;;;;;;;;3582174;40;20072;-62
2021/07/15 00:39:49;;;;;;;2.50;1.10;;;;;;;;;;3582177;40;20370;-62
2021/07/15 00:42:14;;;;;;;4.13;1.58;;;;;;;;;;3582670;40;20040;-62
2021/07/15 00:44:40;;;;;;;2.05;1.13;;;;;;;;;;3581388;40;20645;-62
2021/07/15 00:47:05;;;;;;;2.67;1.40;;;;;;;;;;3577114;40;20352;-62
2021/07/15 00:49:31;;;;;;;2.58;1.65;;;;;;;;;;3582475;40;20051;-62
2021/07/15 00:51:57;;;;;;;4.15;1.20;;;;;;;;;;3583314;40;20048;-64
2021/07/15 00:54:22;;;;;;;2.28;1.50;;;;;;;;;;3581147;40;20036;-62
2021/07/15 00:56:48;;;;;;;2.63;1.23;;;;;;;;;;3583311;40;20040;-62
2021/07/15 00:59:13;;;;;;;2.40;1.25;;;;;;;;;;3581990;40;20036;-63
2021/07/15 01:01:39;;;;;;;4.82;1.48;;;;;;;;;;3573734;40;20052;-62
2021/07/15 01:04:04;;;;;;;2.67;1.40;;;;;;;;;;3582511;40;20664;-63
2021/07/15 01:06:30;;;;;;;2.22;1.45;;;;;;;;;;3582172;40;20037;-62
2021/07/15 01:08:55;;;;;;;1.90;1.30;;;;;;;;;;3582410;40;20048;-62
2021/07/15 01:11:35;;;;;;;3.17;1.35;;;;;;;;;;3581935;40;20039;-63
2021/07/15 01:14:07;;;;;;;2.80;1.10;;;;;;;;;;3581155;40;20258;-63
2021/07/15 01:16:45;;;;;;;4.60;1.65;;;;;;;;;;3576825;40;20072;-63
2021/07/15 01:19:22;;;;;;;2.42;1.15;;;;;;;;;;3582746;40;20036;-62
2021/07/15 01:22:14;;;;;;;2.80;1.20;;;;;;;;;;3581138;40;20035;-63
2021/07/15 01:25:02;;;;;;;2.83;1.45;;;;;;;;;;3580864;40;20041;-62
2021/07/15 01:27:27;;;;;;;3.53;1.88;;;;;;;;;;3580892;40;20033;-63
2021/07/15 01:30:11;;;;;;;1.70;1.17;;;;;;;;;;3583710;40;20044;-63
2021/07/15 01:32:46;;;;;;;3.10;2.17;;;;;;;;;;3581965;40;20125;-62
2021/07/15 01:35:15;;;;;;;5.93;1.67;;;;;;;;;;3573453;40;20028;-62
2021/07/15 01:37:45;;;;;;;3.00;1.15;;;;;;;;;;3581959;40;20037;-62
2021/07/15 01:40:13;;;;;;;2.78;1.40;;;;;;;;;;3580306;40;20039;-62
2021/07/15 01:42:40;;;;;;;3.33;1.40;;;;;;;;;;3579805;40;20045;-62
2021/07/15 01:45:06;;;;;;;2.90;2.00;;;;;;;;;;3580970;40;20036;-62
2021/07/15 01:47:32;;;;;;;2.88;1.48;;;;;;;;;;3583192;40;20037;-62
2021/07/15 01:50:00;;;;;;;1.95;1.25;;;;;;;;;;3583376;40;20037;-63
2021/07/15 01:52:27;;;;;;;4.65;1.70;;;;;;;;;;3584436;40;20024;-62
2021/07/15 01:54:53;;;;;;;3.75;1.40;;;;;;;;;;3581862;40;20031;-62
2021/07/15 01:57:24;;;;;;;4.22;1.92;;;;;;;;;;3582733;40;20029;-62
2021/07/15 01:59:51;;;;;;;4.40;1.83;;;;;;;;;;3582660;40;20045;-62
2021/07/15 02:02:19;;;;;;;2.78;1.70;;;;;;;;;;3583587;40;20171;-62
2021/07/15 02:04:45;;;;;;;9.32;1.77;;;;;;;;;;3581838;40;20296;-62
2021/07/15 02:07:11;;;;;;;4.95;1.80;;;;;;;;;;3582187;40;20029;-62
2021/07/15 02:09:38;;;;;;;6.03;3.15;;;;;;;;;;3582403;40;20041;-62
2021/07/15 02:12:04;;;;;;;4.03;1.70;;;;;;;;;;3581736;40;20061;-63
2021/07/15 02:14:32;;;;;;;2.80;1.58;;;;;;;;;;3583062;40;20048;-62
2021/07/15 02:17:00;;;;;;;2.75;1.52;;;;;;;;;;3582914;40;20416;-63
2021/07/15 02:19:27;;;;;;;5.95;1.75;;;;;;;;;;3571875;40;20044;-63
2021/07/15 02:21:54;;;;;;;2.60;1.70;;;;;;;;;;3581706;40;20056;-63
2021/07/15 02:24:26;;;;;;;2.72;1.55;;;;;;;;;;3581225;40;20130;-63
2021/07/15 02:26:54;;;;;;;2.75;1.75;;;;;;;;;;3581339;40;20051;-63
2021/07/15 02:29:20;;;;;;;4.22;1.65;;;;;;;;;;3580852;40;20048;-63
2021/07/15 02:31:54;;;;;;;4.25;1.80;;;;;;;;;;3580862;40;20030;-63
2021/07/15 02:34:36;;;;;;;3.05;1.70;;;;;;;;;;3583338;40;20046;-63
2021/07/15 02:37:05;;;;;;;8.88;1.90;;;;;;;;;;3582288;40;20126;-63
2021/07/15 02:39:31;;;;;;;4.25;1.70;;;;;;;;;;3579833;40;20025;-63
2021/07/15 02:41:56;;;;;;;2.58;1.70;;;;;;;;;;3582518;40;20458;-63
2021/07/15 02:44:23;;;;;;;4.90;1.92;;;;;;;;;;3581771;40;20073;-63
2021/07/15 02:46:49;;;;;;;3.15;1.90;;;;;;;;;;3581113;40;20029;-63
2021/07/15 02:49:14;;;;;;;4.78;1.90;;;;;;;;;;3582869;40;20039;-63
2021/07/15 02:51:40;;;;;;;2.90;1.75;;;;;;;;;;3581582;40;20025;-62
2021/07/15 02:54:05;;;;;;;5.97;2.10;;;;;;;;;;3583012;40;20396;-62
2021/07/15 02:56:44;;;;;;;2.97;1.88;;;;;;;;;;3584245;40;20044;-62
2021/07/15 02:59:34;;;;;;;2.92;1.95;;;;;;;;;;3583848;40;20563;-62
2021/07/15 03:02:09;;;;;;;3.17;1.98;;;;;;;;;;3582147;40;20288;-62
2021/07/15 03:04:47;;;;;;;3.60;1.88;;;;;;;;;;3583789;40;20035;-62
2021/07/15 03:07:15;;;;;;;3.13;1.88;;;;;;;;;;3584209;40;20036;-62
2021/07/15 03:09:41;;;;;;;2.97;1.95;;;;;;;;;;3582962;40;20073;-62
2021/07/15 03:12:12;;;;;;;3.20;1.85;;;;;;;;;;3582739;40;20033;-63
2021/07/15 03:14:42;;;;;;;3.42;1.85;;;;;;;;;;3581896;40;20063;-62
2021/07/15 03:17:12;;;;;;;6.82;1.88;;;;;;;;;;3583186;40;20424;-63
2021/07/15 03:19:41;;;;;;;3.03;1.67;;;;;;;;;;3585398;40;20078;-62
2021/07/15 03:22:07;;;;;;;3.22;1.65;;;;;;;;;;3585008;40;20037;-62
2021/07/15 03:24:36;;;;;;;8.48;2.00;;;;;;;;;;3582853;40;20611;-63
2021/07/15 03:27:04;;;;;;;2.80;1.80;;;;;;;;;;3585022;40;20029;-62
2021/07/15 03:29:32;;;;;;;3.00;1.60;;;;;;;;;;3584457;40;20118;-62
2021/07/15 03:31:59;;;;;;;3.78;1.90;;;;;;;;;;3581265;40;20033;-62
2021/07/15 03:34:31;;;;;;;3.75;1.70;;;;;;;;;;3579537;40;20612;-62
2021/07/15 03:36:57;;;;;;;6.80;1.70;;;;;;;;;;3576284;40;20121;-62
2021/07/15 03:39:24;;;;;;;3.47;2.10;;;;;;;;;;3583660;40;20045;-62
2021/07/15 03:41:51;;;;;;;3.05;2.13;;;;;;;;;;3582949;40;20428;-62
2021/07/15 03:44:17;;;;;;;3.20;1.75;;;;;;;;;;3583530;40;20044;-63
2021/07/15 03:46:45;;;;;;;2.50;1.63;;;;;;;;;;3583235;40;20037;-63
2021/07/15 03:49:11;;;;;;;2.25;1.30;;;;;;;;;;3584906;40;20044;-63
2021/07/15 03:51:37;;;;;;;4.38;1.80;;;;;;;;;;3584301;40;20054;-64
2021/07/15 03:54:04;;;;;;;6.72;1.80;;;;;;;;;;3583036;40;20068;-63
2021/07/15 03:56:31;;;;;;;3.13;1.50;;;;;;;;;;3582014;40;20063;-63
2021/07/15 03:59:01;;;;;;;1.92;1.30;;;;;;;;;;3583580;40;20362;-63
2021/07/15 04:01:30;;;;;;;9.15;1.40;;;;;;;;;;3584060;40;20130;-63
2021/07/15 04:03:58;;;;;;;2.75;1.55;;;;;;;;;;3583707;40;20044;-63
2021/07/15 04:06:26;;;;;;;2.13;1.30;;;;;;;;;;3575751;40;20041;-63
2021/07/15 04:08:51;;;;;;;2.45;1.50;;;;;;;;;;3579318;40;20040;-63
2021/07/15 04:11:18;;;;;;;2.50;1.55;;;;;;;;;;3582238;40;20361;-63
2021/07/15 04:13:44;;;;;;;2.80;1.58;;;;;;;;;;3582944;40;20071;-63
2021/07/15 04:16:25;;;;;;;3.45;1.50;;;;;;;;;;3582589;40;20043;-63
2021/07/15 04:18:56;;;;;;;2.28;1.50;;;;;;;;;;3581934;40;20039;-62
2021/07/15 04:21:23;;;;;;;5.93;1.45;;;;;;;;;;3582862;40;20392;-63
2021/07/15 04:23:51;;;;;;;3.45;1.40;;;;;;;;;;3583923;40;20037;-62
2021/07/15 04:26:18;;;;;;;2.35;1.50;;;;;;;;;;3573174;40;20040;-63
2021/07/15 04:28:44;;;;;;;3.58;1.60;;;;;;;;;;3582580;40;20043;-62
2021/07/15 04:31:25;;;;;;;5.10;1.70;;;;;;;;;;3582711;40;20117;-62
2021/07/15 04:33:53;;;;;;;3.15;1.33;;;;;;;;;;3582535;40;20036;-62
2021/07/15 04:36:18;;;;;;;2.90;1.60;;;;;;;;;;3583849;40;20499;-62
2021/07/15 04:38:44;;;;;;;4.22;1.55;;;;;;;;;;3585309;40;20037;-62
2021/07/15 04:41:11;;;;;;;4.40;1.70;;;;;;;;;;3583480;40;20064;-62
2021/07/15 04:43:37;;;;;;;2.30;1.40;;;;;;;;;;3584091;40;20369;-62
2021/07/15 04:46:05;;;;;;;3.10;1.60;;;;;;;;;;3583313;40;20162;-62
2021/07/15 04:48:31;;;;;;;3.63;1.63;;;;;;;;;;3582002;40;20041;-63
2021/07/15 04:50:57;;;;;;;3.45;1.52;;;;;;;;;;3579166;40;20496;-63
2021/07/15 04:53:24;;;;;;;3.47;1.70;;;;;;;;;;3583395;40;20096;-62
2021/07/15 04:55:54;;;;;;;3.17;1.17;;;;;;;;;;3584368;40;20037;-63
2021/07/15 04:58:21;;;;;;;2.80;1.33;;;;;;;;;;3584046;40;20056;-62
2021/07/15 05:00:47;;;;;;;2.70;1.58;;;;;;;;;;3581768;40;20266;-62
2021/07/15 05:03:21;;;;;;;4.45;1.60;;;;;;;;;;3582003;40;20072;-62
2021/07/15 05:05:47;;;;;;;2.38;1.30;;;;;;;;;;3583790;40;20042;-62
2021/07/15 05:08:12;;;;;;;5.88;1.67;;;;;;;;;;3583822;40;20292;-62
2021/07/15 05:10:38;;;;;;;4.80;1.80;;;;;;;;;;3582776;40;20134;-62
2021/07/15 05:13:04;;;;;;;2.38;1.30;;;;;;;;;;3582984;40;20041;-62
2021/07/15 05:15:30;;;;;;;6.05;1.20;;;;;;;;;;3580555;40;20365;-62
2021/07/15 05:17:55;;;;;;;3.92;1.45;;;;;;;;;;3576244;40;20058;-62
2021/07/15 05:20:21;;;;;;;2.05;1.20;;;;;;;;;;3584102;40;20033;-62
2021/07/15 05:22:46;;;;;;;2.78;1.50;;;;;;;;;;3581980;40;20636;-62
2021/07/15 05:25:12;;;;;;;2.03;1.15;;;;;;;;;;3582265;40;20309;-62
2021/07/15 05:27:38;;;;;;;3.47;1.63;;;;;;;;;;3582996;40;20065;-62
2021/07/15 05:30:07;;;;;;;3.60;1.90;;;;;;;;;;3582827;40;20028;-62
2021/07/15 05:32:33;;;;;;;3.47;1.40;;;;;;;;;;3581019;40;20037;-62
2021/07/15 05:34:59;;;;;;;3.25;1.50;;;;;;;;;;3580779;40;20406;-63
2021/07/15 05:37:24;;;;;;;1.98;1.20;;;;;;;;;;3582225;40;20025;-63
2021/07/15 05:39:50;;;;;;;2.63;1.20;;;;;;;;;;3583024;40;20039;-63
2021/07/15 05:42:15;;;;;;;1.83;1.08;;;;;;;;;;3583099;40;20408;-63
2021/07/15 05:44:41;;;;;;;2.05;1.27;;;;;;;;;;3582595;40;20039;-63
2021/07/15 05:47:09;;;;;;;2.75;1.30;;;;;;;;;;3582240;40;20554;-62
2021/07/15 05:49:36;;;;;;;2.25;1.40;;;;;;;;;;3582272;40;20025;-62
2021/07/15 05:52:08;;;;;;;2.38;1.20;;;;;;;;;;3579288;40;20048;-63
2021/07/15 05:54:34;;;;;;;3.08;1.42;;;;;;;;;;3582492;40;20075;-62
2021/07/15 05:56:59;;;;;;;3.58;1.77;;;;;;;;;;3582633;40;20098;-62
2021/07/15 05:59:25;;;;;;;2.63;1.48;;;;;;;;;;3581012;40;20040;-62
2021/07/15 06:01:50;;;;;;;4.25;1.60;;;;;;;;;;3581333;40;20040;-62
2021/07/15 06:04:16;;;;;;;2.90;1.63;;;;;;;;;;3581723;40;20017;-62
2021/07/15 06:06:41;;;;;;;2.15;1.20;;;;;;;;;;3583077;40;20051;-62
2021/07/15 06:09:07;;;;;;;2.53;1.50;;;;;;;;;;3583201;40;20048;-62
2021/07/15 06:11:32;;;;;;;2.67;1.50;;;;;;;;;;3580468;40;20049;-62
2021/07/15 06:13:58;;;;;;;2.75;1.48;;;;;;;;;;3574874;40;20034;-62
2021/07/15 06:16:23;;;;;;;3.20;1.60;;;;;;;;;;3581902;40;20036;-62
2021/07/15 06:18:49;;;;;;;2.78;1.38;;;;;;;;;;3582591;40;20073;-62
2021/07/15 06:21:14;;;;;;;5.40;1.92;;;;;;;;;;3582510;40;20068;-62
2021/07/15 06:23:40;;;;;;;3.67;1.88;;;;;;;;;;3582115;40;20041;-62
2021/07/15 06:26:05;;;;;;;3.40;2.30;;;;;;;;;;3582594;40;20390;-62
2021/07/15 06:28:32;;;;;;;2.85;1.80;;;;;;;;;;3582880;40;20272;-62
2021/07/15 06:30:58;;;;;;;4.28;1.90;;;;;;;;;;3583616;40;21486;-62
2021/07/15 06:33:23;;;;;;;3.65;2.00;;;;;;;;;;3582952;40;20037;-62
2021/07/15 06:35:51;;;;;;;3.97;2.42;;;;;;;;;;3581750;40;20035;-63
2021/07/15 06:38:18;;;;;;;3.17;1.92;;;;;;;;;;3581443;40;20364;-63
2021/07/15 06:40:52;;;;;;;4.32;2.05;;;;;;;;;;3581466;40;20092;-63
2021/07/15 06:43:18;;;;;;;2.58;1.67;;;;;;;;;;3583107;40;20032;-62
2021/07/15 06:45:43;;;;;;;2.72;1.60;;;;;;;;;;3583951;40;20041;-62
2021/07/15 06:48:09;;;;;;;3.75;2.20;;;;;;;;;;3584014;40;20040;-62
2021/07/15 06:50:34;;;;;;;4.75;1.75;;;;;;;;;;3582458;40;20037;-62
2021/07/15 06:53:01;;;;;;;9.18;2.05;;;;;;;;;;3583810;40;20339;-63
2021/07/15 06:55:26;;;;;;;3.13;2.00;;;;;;;;;;3583790;40;20037;-63
2021/07/15 06:57:51;;;;;;;3.00;1.70;;;;;;;;;;3574233;40;20062;-63
2021/07/15 07:00:18;;;;;;;2.15;1.20;;;;;;;;;;3584452;40;20041;-63
2021/07/15 07:02:46;;;;;;;2.80;1.50;;;;;;;;;;3582433;40;20025;-62
2021/07/15 07:05:13;;;;;;;2.45;1.27;;;;;;;;;;3584176;40;20028;-63
2021/07/15 07:07:39;;;;;;;2.40;1.33;;;;;;;;;;3583575;40;20597;-62
2021/07/15 07:10:07;;;;;;;4.28;1.10;;;;;;;;;;3583945;40;20808;-62
2021/07/15 07:12:32;;;;;;;2.35;1.00;;;;;;;;;;3582841;40;20060;-63
2021/07/15 07:14:58;;;;;;;3.83;1.20;;;;;;;;;;3583668;40;20029;-63
2021/07/15 07:17:23;;;;;;;2.03;1.23;;;;;;;;;;3583682;40;20335;-63
2021/07/15 07:19:49;;;;;;;2.10;1.10;;;;;;;;;;3582848;40;20040;-63
2021/07/15 07:22:15;;;;;;;2.55;1.27;;;;;;;;;;3582779;40;20024;-62
2021/07/15 07:24:41;;;;;;;2.10;1.00;;;;;;;;;;3581615;40;20044;-63
2021/07/15 07:27:06;;;;;;;5.43;1.00;;;;;;;;;;3583657;40;20656;-62
2021/07/15 07:29:32;;;;;;;1.80;1.13;;;;;;;;;;3585210;40;20112;-62
2021/07/15 07:31:57;;;;;;;1.90;1.00;;;;;;;;;;3582812;40;20606;-63
2021/07/15 07:34:23;;;;;;;1.48;0.90;;;;;;;;;;3582488;40;20052;-63
2021/07/15 07:36:48;;;;;;;1.65;1.00;;;;;;;;;;3583107;40;20028;-62
2021/07/15 07:39:14;;;;;;;1.85;1.08;;;;;;;;;;3581813;40;20024;-62
2021/07/15 07:41:44;;;;;;;4.97;1.05;;;;;;;;;;3577550;40;20591;-62
2021/07/15 07:44:11;;;;;;;4.13;1.08;;;;;;;;;;3585144;40;20039;-62
2021/07/15 07:46:36;;;;;;;1.35;0.80;;;;;;;;;;3582425;40;20032;-62
2021/07/15 07:49:02;;;;;;;2.30;1.00;;;;;;;;;;3584171;40;20033;-62
2021/07/15 07:51:30;;;;;;;2.03;1.13;;;;;;;;;;3582293;40;20380;-62
2021/07/15 07:53:56;;;;;;;3.13;1.02;;;;;;;;;;3583594;40;20039;-62
2021/07/15 07:56:22;;;;;;;2.05;1.15;;;;;;;;;;3582926;40;20053;-62
2021/07/15 07:58:48;;;;;;;1.70;1.02;;;;;;;;;;3582220;40;20095;-62
2021/07/15 08:01:14;;;;;;;2.35;1.50;;;;;;;;;;3583056;40;20157;-62
2021/07/15 08:03:40;;;;;;;2.58;1.10;;;;;;;;;;3581683;40;20039;-62
2021/07/15 08:06:05;;;;;;;1.88;1.00;;;;;;;;;;3583546;40;20045;-62
2021/07/15 08:08:31;;;;;;;2.25;1.02;;;;;;;;;;3583554;40;20049;-62
2021/07/15 08:10:56;;;;;;;2.15;1.30;;;;;;;;;;3583892;40;20032;-62
2021/07/15 08:13:22;;;;;;;1.63;1.00;;;;;;;;;;3582329;40;20456;-62
2021/07/15 08:15:47;;;;;;;2.35;1.20;;;;;;;;;;3582300;40;20029;-62
2021/07/15 08:18:13;;;;;;;1.98;1.25;;;;;;;;;;3581517;40;20684;-63
2021/07/15 08:20:38;;;;;;;2.08;1.00;;;;;;;;;;3582193;40;20129;-63
2021/07/15 08:23:05;;;;;;;2.13;1.20;;;;;;;;;;3583130;40;20053;-63
2021/07/15 08:25:32;;;;;;;1.70;0.98;;;;;;;;;;3584157;40;20080;-63
2021/07/15 08:27:57;;;;;;;1.85;1.00;;;;;;;;;;3584065;40;20125;-63
2021/07/15 08:30:23;;;;;;;2.22;1.20;;;;;;;;;;3581679;40;20048;-63
2021/07/15 08:32:48;;;;;;;1.98;1.10;;;;;;;;;;3581892;40;20083;-63
2021/07/15 08:35:14;;;;;;;1.40;0.80;;;;;;;;;;3583607;40;20062;-63
2021/07/15 08:37:39;;;;;;;2.05;1.25;;;;;;;;;;3583414;40;20379;-63
2021/07/15 08:40:06;;;;;;;4.18;2.20;;;;;;;;;;3573706;40;20027;-61
2021/07/15 08:42:33;;;;;;;12.15;2.50;;;;;;;;;;3583073;40;20033;-62
2021/07/15 08:45:04;;;;;;;4.88;2.97;;;;;;;;;;3582090;40;20036;-63
2021/07/15 08:47:30;;;;;;;2.40;1.20;;;;;;;;;;3583796;40;20040;-63
2021/07/15 08:49:57;;;;;;;2.47;1.30;;;;;;;;;;3582615;40;20024;-63
2021/07/15 08:52:22;;;;;;;2.67;1.10;;;;;;;;;;3582702;40;20033;-63
2021/07/15 08:57:32;;;;;;;1.90;1.02;;;;;;;;;;3585458;40;20026;-61
2021/07/15 08:59:58;;;;;;;1.90;1.08;;;;;;;;;;3583769;40;20391;-62
2021/07/15 09:02:24;;;;;;;4.25;1.20;;;;;;;;;;3582075;40;20041;-61
2021/07/15 09:04:51;;;;;;;2.10;1.13;;;;;;;;;;3582984;40;20048;-61
2021/07/15 09:07:18;;;;;;;2.30;0.88;;;;;;;;;;3583984;40;20044;-61
2021/07/15 09:09:48;;;;;;;1.17;0.73;;;;;;;;;;3582070;40;20541;-61
2021/07/15 09:12:15;;;;;;;2.50;1.10;;;;;;;;;;3580669;40;20044;-62
2021/07/15 09:14:46;;;;;;;2.30;1.08;;;;;;;;;;3578995;40;21158;-61
2021/07/15 09:17:11;;;;;;;1.30;0.88;;;;;;;;;;3582252;40;20033;-61
2021/07/15 09:19:41;;;;;;;1.58;0.95;;;;;;;;;;3583116;40;20131;-61
2021/07/15 09:22:13;;;;;;;1.73;0.90;;;;;;;;;;3576349;40;20037;-61
2021/07/15 09:24:42;;;;;;;1.60;0.82;;;;;;;;;;3584694;40;20058;-61
2021/07/15 09:27:21;;;;;;;2.38;1.02;;;;;;;;;;3582636;40;20369;-61
2021/07/15 09:30:09;;;;;;;1.63;0.90;;;;;;;;;;3584101;40;20479;-61
2021/07/15 09:33:00;;;;;;;2.33;1.00;;;;;;;;;;3583940;40;20657;-62
2021/07/15 09:35:28;;;;;;;1.55;0.98;;;;;;;;;;3582829;40;20078;-61
2021/07/15 09:37:54;;;;;;;1.88;0.95;;;;;;;;;;3582246;40;20088;-61
2021/07/15 09:40:38;;;;;;;4.05;1.10;;;;;;;;;;3582996;40;20040;-61
2021/07/15 09:43:14;;;;;;;2.42;1.20;;;;;;;;;;3581851;40;20041;-61
2021/07/15 09:45:39;;;;;;;1.95;0.82;;;;;;;;;;3581013;40;20327;-61
2021/07/15 09:48:34;;;;;;;5.45;0.93;;;;;;;;;;3582091;40;20048;-61
2021/07/15 09:51:00;;;;;;;1.80;0.95;;;;;;;;;;3584302;40;20037;-61
2021/07/15 09:53:27;;;;;;;2.50;1.38;;;;;;;;;;3582770;40;20037;-61
2021/07/15 09:56:05;;;;;;;1.27;0.68;;;;;;;;;;3583534;40;20057;-62
2021/07/15 09:58:42;;;;;;;4.50;1.17;;;;;;;;;;3582754;40;20272;-62
2021/07/15 10:01:13;;;;;;;2.45;0.77;;;;;;;;;;3582982;40;20145;-62
2021/07/15 10:03:43;;;;;;;2.35;1.00;;;;;;;;;;3582812;40;20088;-61
2021/07/15 10:06:09;;;;;;;;;;;;;;;;;;3583195;40;20047;-62
2021/07/15 10:08:37;;;;;;;1.65;1.08;;;;;;;;;;3579563;40;19973;-62
2021/07/15 10:11:24;;;;;;;2.15;1.15;;;;;;;;;;3581665;40;20036;-62
2021/07/15 10:14:09;;;;;;;2.33;1.00;;;;;;;;;;3582837;40;20331;-62
2021/07/15 10:16:37;;;;;;;1.70;0.88;;;;;;;;;;3581869;40;20039;-62
2021/07/15 10:19:04;;;;;;;1.45;0.90;;;;;;;;;;3580918;40;20048;-62
2021/07/15 10:21:32;;;;;;;0.93;0.60;;;;;;;;;;3580600;40;20040;-62
2021/07/15 10:24:02;;;;;;;2.92;1.08;;;;;;;;;;3582947;40;20137;-62
2021/07/15 10:26:28;;;;;;;1.50;0.82;;;;;;;;;;3582491;40;20048;-62
2021/07/15 10:28:55;;;;;;;2.65;1.15;;;;;;;;;;3580060;40;20376;-62
2021/07/15 10:31:22;;;;;;;1.75;0.95;;;;;;;;;;3578461;40;20068;-62
2021/07/15 10:33:48;;;;;;;0.95;0.70;;;;;;;;;;3582962;40;20133;-62
2021/07/15 10:36:14;;;;;;;3.45;1.00;;;;;;;;;;3582978;40;20052;-62
2021/07/15 10:38:42;;;;;;;2.88;1.10;;;;;;;;;;3580234;40;20122;-62
2021/07/15 10:41:09;;;;;;;2.28;1.08;;;;;;;;;;3579944;40;20113;-62
2021/07/15 10:43:35;;;;;;;1.98;0.90;;;;;;;;;;3581434;40;20029;-62
2021/07/15 10:46:02;;;;;;;1.67;0.70;;;;;;;;;;3582294;40;20029;-62
2021/07/15 10:48:36;;;;;;;2.30;0.90;;;;;;;;;;3582558;40;20057;-62
2021/07/15 10:51:03;;;;;;;1.70;0.70;;;;;;;;;;3581166;40;20040;-62
2021/07/15 10:53:34;;;;;;;2.92;1.02;;;;;;;;;;3582192;40;20059;-63
2021/07/15 10:56:01;;;;;;;2.08;0.95;;;;;;;;;;3583074;40;20037;-62
2021/07/15 10:58:49;;;;;;;1.40;0.80;;;;;;;;;;3582965;40;20469;-62
2021/07/15 11:01:37;;;;;;;1.40;0.70;;;;;;;;;;3580882;40;20126;-62
2021/07/15 11:04:08;;;;;;;2.47;0.90;;;;;;;;;;3580783;40;20048;-62
2021/07/15 11:06:53;;;;;;;2.42;1.13;;;;;;;;;;3582928;40;20025;-62
2021/07/15 11:09:30;;;;;;;2.92;0.90;;;;;;;;;;3582972;40;20037;-63
2021/07/15 11:11:57;;;;;;;2.53;1.02;;;;;;;;;;3582065;40;20387;-62
2021/07/15 11:14:46;;;;;;;2.17;0.93;;;;;;;;;;3580171;40;20037;-63
2021/07/15 11:17:20;;;;;;;2.03;0.80;;;;;;;;;;3583095;40;20033;-63
2021/07/15 11:20:15;;;;;;;2.13;1.23;;;;;;;;;;3582865;40;20056;-63
2021/07/15 11:22:42;;;;;;;1.27;0.77;;;;;;;;;;3581238;40;20118;-63
2021/07/15 11:25:15;;;;;;;1.52;0.80;;;;;;;;;;3580421;40;20289;-63
2021/07/15 11:27:43;;;;;;;1.20;0.75;;;;;;;;;;3584761;40;20138;-63
2021/07/15 11:30:34;;;;;;;2.08;0.93;;;;;;;;;;3584701;40;20041;-62
2021/07/15 11:33:19;;;;;;;0.90;0.60;;;;;;;;;;3580746;40;20052;-63
2021/07/15 11:36:08;;;;;;;1.88;1.02;;;;;;;;;;3582383;40;20045;-63
2021/07/15 11:38:36;;;;;;;1.23;0.77;;;;;;;;;;3582350;40;20036;-62
2021/07/15 11:41:04;;;;;;;1.73;0.75;;;;;;;;;;3582269;40;20294;-62
2021/07/15 11:43:46;;;;;;;1.52;0.82;;;;;;;;;;3583532;40;20039;-63
2021/07/15 11:46:19;;;;;;;3.60;1.20;;;;;;;;;;3581603;40;20162;-63
2021/07/15 11:49:08;;;;;;;4.28;1.20;;;;;;;;;;3582937;40;20044;-62
2021/07/15 11:51:52;;;;;;;1.40;0.70;;;;;;;;;;3575761;40;20033;-62
2021/07/15 11:54:35;;;;;;;2.15;0.90;;;;;;;;;;3583387;40;20372;-62
2021/07/15 11:57:12;;;;;;;1.48;0.80;;;;;;;;;;3583889;40;20131;-62
2021/07/15 12:00:03;;;;;;;1.52;0.77;;;;;;;;;;3584513;40;20307;-62
2021/07/15 12:02:37;;;;;;;;;;;;;;;;;;3584872;40;20040;-62
2021/07/15 12:05:35;;;;;;;6.70;0.93;;;;;;;;;;3583504;40;19972;-62
2021/07/15 12:08:15;;;;;;;1.42;0.80;;;;;;;;;;3583855;40;20093;-62
2021/07/15 12:10:42;;;;;;;1.77;0.90;;;;;;;;;;3584855;40;20044;-62
2021/07/15 12:13:13;;;;;;;1.83;0.93;;;;;;;;;;3582008;40;20045;-62
2021/07/15 12:15:43;;;;;;;3.70;1.13;;;;;;;;;;3576323;40;20041;-61
2021/07/15 12:18:17;;;;;;;6.22;1.13;;;;;;;;;;3583429;40;20051;-60
2021/07/15 12:20:58;;;;;;;1.90;1.10;;;;;;;;;;3581621;40;20048;-61
2021/07/15 12:23:28;;;;;;;1.55;0.90;;;;;;;;;;3582471;40;20028;-61
2021/07/15 12:25:54;;;;;;;2.08;0.95;;;;;;;;;;3583809;40;20062;-61
2021/07/15 12:28:25;;;;;;;1.05;0.60;;;;;;;;;;3581753;40;20045;-61
2021/07/15 12:30:52;;;;;;;1.92;0.98;;;;;;;;;;3581874;40;20268;-61
2021/07/15 12:33:20;;;;;;;1.33;0.80;;;;;;;;;;3583648;40;20431;-61
2021/07/15 12:35:49;;;;;;;1.60;0.80;;;;;;;;;;3581587;40;20468;-61
2021/07/15 12:38:22;;;;;;;2.47;1.08;;;;;;;;;;3582311;40;20053;-61
2021/07/15 12:40:49;;;;;;;2.72;0.93;;;;;;;;;;3582469;40;20055;-61
2021/07/15 12:43:21;;;;;;;0.75;0.57;;;;;;;;;;3580159;40;20060;-60
2021/07/15 12:45:47;;;;;;;1.90;0.98;;;;;;;;;;3580578;40;20048;-61
2021/07/15 12:48:15;;;;;;;1.63;0.90;;;;;;;;;;3583144;40;20032;-61
2021/07/15 12:50:42;;;;;;;2.13;0.98;;;;;;;;;;3580788;40;20039;-61
2021/07/15 12:53:13;;;;;;;1.63;0.93;;;;;;;;;;3580568;40;20157;-61
2021/07/15 12:55:41;;;;;;;2.67;1.00;;;;;;;;;;3579654;40;20036;-61
2021/07/15 12:58:06;;;;;;;4.95;0.93;;;;;;;;;;3582277;40;20033;-61
2021/07/15 13:00:34;;;;;;;1.58;0.98;;;;;;;;;;3582209;40;20051;-61
2021/07/15 13:03:01;;;;;;;6.43;1.20;;;;;;;;;;3581078;40;20400;-61
2021/07/15 13:05:26;;;;;;;1.77;0.80;;;;;;;;;;3580793;40;20091;-61
2021/07/15 13:07:52;;;;;;;2.60;1.15;;;;;;;;;;3584140;40;20048;-61
2021/07/15 13:10:40;;;;;;;2.17;1.05;;;;;;;;;;3583684;40;20053;-61
2021/07/15 13:15:54;;;;;;;1.77;0.90;;;;;;;;;;3581445;40;20035;-61
2021/07/15 13:18:23;;;;;;;;;;;;;;;;;;3582239;40;20059;-61
2021/07/15 13:20:49;;;;;;;2.03;0.80;;;;;;;;;;3582957;40;20054;-61
2021/07/15 13:23:14;;;;;;;2.28;0.95;;;;;;;;;;3581816;40;20072;-60
2021/07/15 13:25:49;;;;;;;2.15;1.08;;;;;;;;;;3582359;40;20033;-61
2021/07/15 13:28:16;;;;;;;3.47;0.80;;;;;;;;;;3582064;40;20041;-61
2021/07/15 13:30:44;;;;;;;1.27;0.77;;;;;;;;;;3584134;40;20036;-61
2021/07/15 13:33:24;;;;;;;3.78;1.17;;;;;;;;;;3582044;40;20050;-61
2021/07/15 13:35:51;;;;;;;2.47;0.98;;;;;;;;;;3582533;40;20021;-61
2021/07/15 13:38:18;;;;;;;3.00;1.02;;;;;;;;;;3582194;40;20045;-61
2021/07/15 13:40:45;;;;;;;2.80;0.90;;;;;;;;;;3576336;40;20036;-61
2021/07/15 13:43:26;;;;;;;1.88;0.88;;;;;;;;;;3582292;40;20029;-61
2021/07/15 13:45:53;;;;;;;1.73;0.80;;;;;;;;;;3581768;40;20033;-61
2021/07/15 13:48:21;;;;;;;1.88;0.93;;;;;;;;;;3580020;40;20044;-61
2021/07/15 13:50:52;;;;;;;1.45;0.80;;;;;;;;;;3582118;40;20122;-61
2021/07/15 13:53:20;;;;;;;2.28;1.10;;;;;;;;;;3583067;40;20339;-61
2021/07/15 13:55:47;;;;;;;4.00;1.02;;;;;;;;;;3582655;40;20032;-61
2021/07/15 13:58:17;;;;;;;1.55;0.80;;;;;;;;;;3580385;40;20352;-60
2021/07/15 14:01:02;;;;;;;2.40;0.98;;;;;;;;;;3583226;40;20083;-61
2021/07/15 14:03:28;;;;;;;1.55;0.80;;;;;;;;;;3584964;40;20065;-61
2021/07/15 14:05:56;;;;;;;2.28;0.90;;;;;;;;;;3583007;40;20364;-61
2021/07/15 14:08:23;;;;;;;2.47;0.80;;;;;;;;;;3582686;40;20072;-61
2021/07/15 14:10:48;;;;;;;1.95;0.88;;;;;;;;;;3582065;40;20141;-61
2021/07/15 14:13:15;;;;;;;2.08;0.82;;;;;;;;;;3582482;40;20033;-61
2021/07/15 14:15:43;;;;;;;1.50;0.80;;;;;;;;;;3583480;40;21127;-61
2021/07/15 14:18:15;;;;;;;2.22;0.75;;;;;;;;;;3583628;40;20565;-62
2021/07/15 14:20:41;;;;;;;1.92;0.85;;;;;;;;;;3581476;40;20470;-61
2021/07/15 14:23:09;;;;;;;1.50;0.90;;;;;;;;;;3583589;40;20103;-62
2021/07/15 14:25:36;;;;;;;1.15;0.65;;;;;;;;;;3583289;40;20045;-62
2021/07/15 14:28:03;;;;;;;2.75;1.10;;;;;;;;;;3583868;40;20372;-61
2021/07/15 14:30:28;;;;;;;1.20;0.80;;;;;;;;;;3581255;40;20352;-61
2021/07/15 14:32:56;;;;;;;3.97;1.20;;;;;;;;;;3581907;40;20033;-62
2021/07/15 14:35:23;;;;;;;3.47;1.00;;;;;;;;;;3582861;40;20036;-61
2021/07/15 14:37:49;;;;;;;1.90;1.00;;;;;;;;;;3582715;40;20037;-61
2021/07/15 14:40:15;;;;;;;1.45;0.90;;;;;;;;;;3581538;40;20041;-61
2021/07/15 14:42:43;;;;;;;2.03;1.15;;;;;;;;;;3581154;40;20044;-61
2021/07/15 14:45:09;;;;;;;1.80;0.80;;;;;;;;;;3579397;40;20041;-61
2021/07/15 14:47:35;;;;;;;2.53;0.90;;;;;;;;;;3581199;40;20033;-61
2021/07/15 14:50:01;;;;;;;2.97;1.02;;;;;;;;;;3585605;40;20039;-61
2021/07/15 14:52:27;;;;;;;2.35;1.10;;;;;;;;;;3585319;40;20032;-61
2021/07/15 14:54:53;;;;;;;2.15;1.00;;;;;;;;;;3581417;40;20141;-61
2021/07/15 14:57:18;;;;;;;1.50;0.90;;;;;;;;;;3584404;40;20074;-61
2021/07/15 14:59:44;;;;;;;2.85;0.95;;;;;;;;;;3577437;40;20033;-61